Strona główna
METAR-TAF:

METAR-TAF

Lotnisko :

Quakertown Airport

Quakertown, Pensylwania, Stany Zjednoczone

Szerokość geograficzna: 40-26-06N, Długość geograficzna: 075-22-54W, wysokość: 160 m

Aktualna obserwacja pogody

Raport powstał 10 minut temu, godzina 11:40 UTC
Cisza
Temperatura 22°C
Wilgotność 100%
Ciśnienie 1010 hPa
Widzialność: 14.5 km
Zachmurzenie całkowite na wysokości 400 ft

METAR: KUKT 251140Z AUTO 00000KT 9SM OVC004 22/22 A2982 RMK A01

czas: 07:50 (11:50 UTC)


TAF: brakujący

Obserwacja i prognoza pogody dla ponad 4000 lotnisk (raport METAR i TAF).

Dostępne stacje oznaczono żółtymi i czerwonymi punktami na mapie.

Najedź kursorem aby zobaczyć nazwę stacji.

Kliknij aby zobaczyć obserwacje i prognozy pogody.

Aby zmienić mapę: kliknij na zielony przycisk z czarnym krzyżykiem, aby powiększyć; na zielony przycisk z myślnikiem, aby pomniejszyć; na zielone strzałki, aby przejść do map sąsiednich.


METAR-TAF: